Time;durP1;ratioP1;P1;durP2;ratioP2;P2;SDS_P1;SDS_P2;PMS_P1;PMS_P2;Temp;Humidity;BMP_temperature;BMP_pressure;BME280_temperature;BME280_humidity;BME280_pressure;Samples;Min_cycle;Max_cycle;Signal;HPM_P1;HPM_P2
2021/07/17 00:01:08;;;;;;;34.80;18.95;;;20.80;97.90;;;;;;5052674;28;20041;-61
2021/07/17 00:03:34;;;;;;;25.48;15.80;;;20.80;97.90;;;;;;5051552;28;20037;-60
2021/07/17 00:06:00;;;;;;;30.60;17.17;;;20.80;98.10;;;;;;5051615;28;20484;-61
2021/07/17 00:08:26;;;;;;;30.13;17.63;;;20.80;98.30;;;;;;5051158;28;20120;-59
2021/07/17 00:10:51;;;;;;;33.40;17.60;;;20.80;98.30;;;;;;5051137;28;20720;-59
2021/07/17 00:13:18;;;;;;;32.40;18.23;;;20.70;98.40;;;;;;5051031;28;20035;-61
2021/07/17 00:15:45;;;;;;;32.50;17.85;;;20.60;98.40;;;;;;5050509;28;20595;-58
2021/07/17 00:18:14;;;;;;;40.67;19.00;;;20.60;98.60;;;;;;5050613;28;20063;-61
2021/07/17 00:20:41;;;;;;;32.60;18.98;;;20.60;98.60;;;;;;5040464;28;20128;-60
2021/07/17 00:23:07;;;;;;;41.92;20.42;;;20.50;98.90;;;;;;5049473;28;20021;-61
2021/07/17 00:25:32;;;;;;;35.88;18.35;;;20.50;99.00;;;;;;5051361;28;20041;-60
2021/07/17 00:27:59;;;;;;;34.42;18.85;;;20.40;98.90;;;;;;5050512;28;20033;-60
2021/07/17 00:30:25;;;;;;;34.53;18.27;;;20.40;99.00;;;;;;5050501;28;20033;-59
2021/07/17 00:32:51;;;;;;;36.30;18.95;;;20.30;99.20;;;;;;5050901;28;20025;-60
2021/07/17 00:35:16;;;;;;;34.00;18.85;;;20.40;99.00;;;;;;5050347;28;20195;-60
2021/07/17 00:37:42;;;;;;;32.00;18.45;;;20.40;98.90;;;;;;5050468;28;20043;-60
2021/07/17 00:40:10;;;;;;;36.03;18.48;;;20.40;99.00;;;;;;5050985;28;20489;-61
2021/07/17 00:42:42;;;;;;;38.10;18.65;;;20.40;99.10;;;;;;5053578;28;20498;-61
2021/07/17 00:45:08;;;;;;;42.97;19.15;;;20.40;98.80;;;;;;5059785;28;20029;-59
2021/07/17 00:47:36;;;;;;;29.92;17.75;;;20.40;99.00;;;;;;5049307;28;20037;-61
2021/07/17 00:50:03;;;;;;;38.72;18.27;;;20.30;98.80;;;;;;5050652;28;20040;-60
2021/07/17 00:52:29;;;;;;;33.75;17.95;;;20.40;99.00;;;;;;5050636;28;20045;-61
2021/07/17 00:54:56;;;;;;;38.42;17.48;;;20.40;98.60;;;;;;5051079;28;20041;-60
2021/07/17 00:57:22;;;;;;;31.17;17.27;;;20.40;98.70;;;;;;5049983;28;20040;-61
2021/07/17 00:59:51;;;;;;;42.65;18.20;;;20.40;98.70;;;;;;5050791;28;20132;-60
2021/07/17 01:02:19;;;;;;;32.70;17.10;;;20.40;98.80;;;;;;5050790;28;20075;-61
2021/07/17 01:04:46;;;;;;;34.33;18.60;;;20.40;98.60;;;;;;5050499;28;20036;-60
2021/07/17 01:07:12;;;;;;;33.97;17.42;;;20.20;98.90;;;;;;5041887;28;20120;-59
2021/07/17 01:09:38;;;;;;;28.35;16.80;;;20.20;99.00;;;;;;5051151;28;20049;-60
2021/07/17 01:12:04;;;;;;;29.33;16.63;;;20.10;98.70;;;;;;5059894;28;20128;-61
2021/07/17 01:14:30;;;;;;;31.17;17.15;;;20.40;98.70;;;;;;5053439;28;20064;-60
2021/07/17 01:16:56;;;;;;;27.20;15.88;;;20.20;98.60;;;;;;5040786;28;20021;-60
2021/07/17 01:19:23;;;;;;;35.65;18.10;;;20.30;98.80;;;;;;5043691;28;20056;-60
2021/07/17 01:21:51;;;;;;;37.20;17.25;;;20.40;98.80;;;;;;5053741;28;20033;-60
2021/07/17 01:24:17;;;;;;;34.33;16.35;;;20.40;98.40;;;;;;5055639;28;20108;-60
2021/07/17 01:26:43;;;;;;;36.40;16.63;;;20.30;98.50;;;;;;5054239;28;20500;-60
2021/07/17 01:29:09;;;;;;;31.67;16.55;;;20.30;98.40;;;;;;5054331;28;20128;-60
2021/07/17 01:31:35;;;;;;;32.60;17.38;;;20.30;98.40;;;;;;5053896;28;20091;-61
2021/07/17 01:34:00;;;;;;;32.33;17.77;;;20.30;98.40;;;;;;5054067;28;20033;-60
2021/07/17 01:36:26;;;;;;;33.97;17.60;;;20.10;98.70;;;;;;5054030;28;20037;-58
2021/07/17 01:38:51;;;;;;;29.48;16.42;;;20.20;98.80;;;;;;5053862;28;20063;-59
2021/07/17 01:41:17;;;;;;;32.28;17.17;;;20.20;98.40;;;;;;5054251;28;20044;-59
2021/07/17 01:43:43;;;;;;;32.97;17.08;;;20.20;98.70;;;;;;5066392;28;20119;-60
2021/07/17 01:46:09;;;;;;;32.40;18.23;;;20.20;98.60;;;;;;5043283;28;20490;-62
2021/07/17 01:48:34;;;;;;;34.22;18.60;;;20.10;99.00;;;;;;5053990;28;20041;-62
2021/07/17 01:51:00;;;;;;;31.48;17.63;;;20.10;99.10;;;;;;5054210;28;20071;-61
2021/07/17 01:53:25;;;;;;;37.78;18.83;;;20.00;99.10;;;;;;5054204;28;20025;-62
2021/07/17 01:55:51;;;;;;;26.67;17.88;;;19.90;99.30;;;;;;5055077;28;20392;-61
2021/07/17 01:58:17;;;;;;;30.63;19.10;;;19.90;99.30;;;;;;5053771;28;20092;-60
2021/07/17 02:00:42;;;;;;;32.55;17.98;;;19.90;99.50;;;;;;5053780;28;20060;-60
2021/07/17 02:03:09;;;;;;;30.02;17.48;;;19.90;99.30;;;;;;5053992;28;20033;-60
2021/07/17 02:05:35;;;;;;;33.05;18.83;;;19.80;99.40;;;;;;5053544;28;20125;-60
2021/07/17 02:08:01;;;;;;;31.52;17.15;;;19.80;99.40;;;;;;5053536;28;20112;-58
2021/07/17 02:10:28;;;;;;;36.30;18.20;;;19.80;99.30;;;;;;5053621;28;20029;-60
2021/07/17 02:13:15;;;;;;;45.90;18.02;;;19.90;99.10;;;;;;5065209;28;20032;-59
2021/07/17 02:15:50;;;;;;;31.80;17.67;;;19.90;98.90;;;;;;5052746;28;20044;-60
2021/07/17 02:18:21;;;;;;;36.65;17.80;;;19.90;98.90;;;;;;5053234;28;20132;-60
2021/07/17 02:20:47;;;;;;;32.03;17.65;;;19.90;98.70;;;;;;5052936;28;20031;-60
2021/07/17 02:23:12;;;;;;;38.13;18.77;;;19.90;99.00;;;;;;5052945;28;20037;-59
2021/07/17 02:25:38;;;;;;;31.67;18.73;;;20.00;98.60;;;;;;5053011;28;20044;-60
2021/07/17 02:28:05;;;;;;;35.72;19.13;;;20.00;98.80;;;;;;5052078;28;20041;-60
2021/07/17 02:30:31;;;;;;;33.40;19.88;;;20.00;98.40;;;;;;5052095;28;20033;-59
2021/07/17 02:32:57;;;;;;;34.25;20.00;;;20.00;98.70;;;;;;5053372;28;20025;-61
2021/07/17 02:35:23;;;;;;;36.38;20.80;;;20.00;98.60;;;;;;5052646;28;20033;-60
2021/07/17 02:37:48;;;;;;;31.15;19.42;;;20.00;98.60;;;;;;5052523;28;20123;-60
2021/07/17 02:40:14;;;;;;;33.42;21.17;;;20.00;98.50;;;;;;5052927;28;20033;-65
2021/07/17 02:42:40;;;;;;;35.42;20.63;;;19.90;99.00;;;;;;5056341;28;20032;-65
2021/07/17 02:45:07;;;;;;;34.83;20.92;;;19.90;99.00;;;;;;5040477;28;20111;-63
2021/07/17 02:47:34;;;;;;;38.55;21.75;;;19.90;98.90;;;;;;5049299;28;20468;-62
2021/07/17 02:49:59;;;;;;;36.83;20.73;;;19.90;99.10;;;;;;5052710;28;20094;-60
2021/07/17 02:52:25;;;;;;;43.30;24.50;;;19.90;99.00;;;;;;5053008;28;20396;-60
2021/07/17 02:54:50;;;;;;;44.25;24.60;;;19.70;99.50;;;;;;5052890;28;20547;-60
2021/07/17 02:57:16;;;;;;;40.58;22.52;;;19.70;99.30;;;;;;5052056;28;20099;-60
2021/07/17 02:59:42;;;;;;;39.58;23.50;;;19.70;99.30;;;;;;5052816;28;20047;-59
2021/07/17 03:02:07;;;;;;;46.25;24.88;;;19.60;99.40;;;;;;5052850;28;20043;-59
2021/07/17 03:04:33;;;;;;;44.60;26.90;;;19.70;99.20;;;;;;5038016;28;20048;-64
2021/07/17 03:06:58;;;;;;;37.92;27.00;;;19.70;99.20;;;;;;5051988;28;20036;-66
2021/07/17 03:09:24;;;;;;;47.67;29.15;;;19.60;99.40;;;;;;5052494;28;20041;-65
2021/07/17 03:11:50;;;;;;;43.40;28.23;;;19.50;99.90;;;;;;5051194;28;20025;-65
2021/07/17 03:14:15;;;;;;;42.92;28.30;;;19.40;99.90;;;;;;5034467;28;20044;-65
2021/07/17 03:16:42;;;;;;;45.13;29.30;;;19.40;99.90;;;;;;5052175;28;20029;-64
2021/07/17 03:19:08;;;;;;;48.13;30.08;;;19.30;99.90;;;;;;5051935;28;20075;-63
2021/07/17 03:21:34;;;;;;;44.30;29.77;;;19.20;99.90;;;;;;5052431;28;20126;-62
2021/07/17 03:23:59;;;;;;;49.22;29.52;;;19.20;99.90;;;;;;5052145;28;20091;-61
2021/07/17 03:26:25;;;;;;;42.90;29.70;;;19.30;99.90;;;;;;5051875;28;20040;-63
2021/07/17 03:28:51;;;;;;;48.00;29.27;;;19.30;99.90;;;;;;5050701;28;20041;-63
2021/07/17 03:31:24;;;;;;;47.78;30.98;;;19.30;99.90;;;;;;5052189;28;20802;-62
2021/07/17 03:33:49;;;;;;;39.75;29.77;;;19.30;99.90;;;;;;5051989;28;20029;-61
2021/07/17 03:36:15;;;;;;;48.10;30.35;;;19.20;99.90;;;;;;5050300;28;20056;-61
2021/07/17 03:38:40;;;;;;;49.75;31.58;;;19.20;99.90;;;;;;5051641;28;20033;-61
2021/07/17 03:41:06;;;;;;;45.97;31.10;;;19.20;99.90;;;;;;5052466;28;20092;-61
2021/07/17 03:43:31;;;;;;;48.10;28.10;;;19.20;99.90;;;;;;5063584;28;20037;-62
2021/07/17 03:45:57;;;;;;;41.53;29.20;;;19.20;99.90;;;;;;5042948;28;20044;-61
2021/07/17 03:48:22;;;;;;;46.78;29.80;;;19.20;99.90;;;;;;5051873;28;20048;-59
2021/07/17 03:50:48;;;;;;;43.97;28.88;;;19.10;99.90;;;;;;5038227;28;20488;-61
2021/07/17 03:53:14;;;;;;;47.38;28.50;;;19.10;99.90;;;;;;5051224;28;20370;-59
2021/07/17 03:55:39;;;;;;;51.30;29.45;;;19.00;99.90;;;;;;5051279;28;20441;-60
2021/07/17 03:58:05;;;;;;;45.30;27.95;;;18.90;99.90;;;;;;5051729;28;20037;-59
2021/07/17 04:00:30;;;;;;;48.63;29.27;;;19.00;99.90;;;;;;5051515;28;20068;-59
2021/07/17 04:02:56;;;;;;;43.72;27.60;;;18.90;99.90;;;;;;5051844;28;20029;-60
2021/07/17 04:05:21;;;;;;;42.70;27.52;;;18.90;99.90;;;;;;5051220;28;20033;-59
2021/07/17 04:07:47;;;;;;;44.10;27.30;;;19.00;99.90;;;;;;5050981;28;20025;-60
2021/07/17 04:10:13;;;;;;;45.08;27.92;;;18.90;99.90;;;;;;5051282;28;20029;-58
2021/07/17 04:12:39;;;;;;;51.65;28.05;;;18.90;99.90;;;;;;5062003;28;20047;-58
2021/07/17 04:15:06;;;;;;;46.38;26.83;;;18.90;99.90;;;;;;5051740;28;20033;-61
2021/07/17 04:17:32;;;;;;;50.75;28.02;;;18.90;99.90;;;;;;5051135;28;20108;-63
2021/07/17 04:19:57;;;;;;;42.85;28.60;;;18.80;99.90;;;;;;5050666;28;20167;-64
2021/07/17 04:22:23;;;;;;;40.72;27.33;;;18.70;99.90;;;;;;5051208;28;20037;-65
2021/07/17 04:24:49;;;;;;;43.63;29.38;;;18.70;99.90;;;;;;5051012;28;20037;-65
2021/07/17 04:27:14;;;;;;;46.03;31.67;;;18.70;99.90;;;;;;5050730;28;20496;-63
2021/07/17 04:29:40;;;;;;;44.40;29.20;;;18.60;99.90;;;;;;5033820;28;20044;-62
2021/07/17 04:32:06;;;;;;;56.53;31.25;;;18.60;99.90;;;;;;5051417;28;20033;-61
2021/07/17 04:34:31;;;;;;;52.90;29.95;;;18.60;99.90;;;;;;5050926;28;20032;-65
2021/07/17 04:36:57;;;;;;;51.75;31.08;;;18.50;99.90;;;;;;5050198;28;20524;-65
2021/07/17 04:39:24;;;;;;;51.33;32.40;;;18.60;99.90;;;;;;5043726;28;20033;-63
2021/07/17 04:41:50;;;;;;;60.28;32.72;;;18.40;99.90;;;;;;5050673;28;20424;-64
2021/07/17 04:44:15;;;;;;;56.25;34.00;;;18.30;99.90;;;;;;5063874;28;20063;-66
2021/07/17 04:46:41;;;;;;;56.20;31.95;;;18.30;99.90;;;;;;5044224;28;20045;-65
2021/07/17 04:49:06;;;;;;;48.97;32.03;;;18.30;99.90;;;;;;5055104;28;20079;-64
2021/07/17 04:51:32;;;;;;;54.65;34.55;;;18.40;99.90;;;;;;5055498;28;20041;-64
2021/07/17 04:53:59;;;;;;;53.50;35.00;;;18.30;99.90;;;;;;5054947;28;20036;-63
2021/07/17 04:56:24;;;;;;;58.95;36.15;;;18.20;99.90;;;;;;5054285;28;20099;-64
2021/07/17 04:58:50;;;;;;;50.67;33.63;;;18.20;99.90;;;;;;5055370;28;20488;-63
2021/07/17 05:01:16;;;;;;;53.92;32.90;;;18.30;99.90;;;;;;5055250;28;20332;-62
2021/07/17 05:03:42;;;;;;;57.00;33.35;;;18.30;99.90;;;;;;5055585;28;20396;-62
2021/07/17 05:06:07;;;;;;;47.88;33.00;;;18.30;99.90;;;;;;5054407;28;20049;-62
2021/07/17 05:08:33;;;;;;;48.03;30.52;;;18.30;99.90;;;;;;5054217;28;20175;-61
2021/07/17 05:10:59;;;;;;;42.45;30.98;;;18.50;99.90;;;;;;5054976;28;20032;-62
2021/07/17 05:13:24;;;;;;;48.90;31.92;;;18.40;99.90;;;;;;5065960;28;20032;-63
2021/07/17 05:15:52;;;;;;;38.38;29.88;;;18.40;99.90;;;;;;5050953;28;20132;-63
2021/07/17 05:18:18;;;;;;;48.15;30.95;;;18.40;99.90;;;;;;5034010;28;20025;-61
2021/07/17 05:20:43;;;;;;;46.22;30.20;;;18.40;99.90;;;;;;5050964;28;20044;-61
2021/07/17 05:23:10;;;;;;;47.78;29.80;;;18.60;99.90;;;;;;5054431;28;20116;-61
2021/07/17 05:25:37;;;;;;;46.83;31.75;;;18.50;99.90;;;;;;5054377;28;20027;-61
2021/07/17 05:28:03;;;;;;;45.70;33.60;;;18.40;99.90;;;;;;5054018;28;20214;-59
2021/07/17 05:30:30;;;;;;;46.33;33.85;;;18.40;99.90;;;;;;5054547;28;20520;-61
2021/07/17 05:32:55;;;;;;;48.13;36.53;;;18.40;99.90;;;;;;5054924;28;20032;-61
2021/07/17 05:35:21;;;;;;;52.50;36.33;;;18.30;99.90;;;;;;5053768;28;20099;-59
2021/07/17 05:37:47;;;;;;;56.10;37.53;;;18.30;99.90;;;;;;5054582;28;20025;-60
2021/07/17 05:40:13;;;;;;;51.00;37.33;;;18.10;99.90;;;;;;5055062;28;20040;-60
2021/07/17 05:42:39;;;;;;;50.63;36.30;;;18.20;99.90;;;;;;5046398;28;20450;-61
2021/07/17 05:45:05;;;;;;;46.00;35.38;;;18.30;99.90;;;;;;5062788;28;20028;-59
2021/07/17 05:47:31;;;;;;;49.20;36.08;;;18.30;99.90;;;;;;5055107;28;20079;-59
2021/07/17 05:49:57;;;;;;;44.97;33.75;;;18.30;99.90;;;;;;5054372;28;20033;-58
2021/07/17 05:52:22;;;;;;;43.75;34.25;;;18.40;99.90;;;;;;5052858;28;20064;-58
2021/07/17 05:54:48;;;;;;;41.45;32.30;;;18.40;99.90;;;;;;5053575;28;20033;-60
2021/07/17 05:57:14;;;;;;;45.58;32.85;;;18.40;99.90;;;;;;5044616;28;20435;-59
2021/07/17 05:59:39;;;;;;;40.05;32.13;;;18.40;99.90;;;;;;5050727;28;20044;-59
2021/07/17 06:02:05;;;;;;;41.08;31.65;;;18.50;99.90;;;;;;5053836;28;20041;-57
2021/07/17 06:04:31;;;;;;;48.53;33.30;;;18.30;99.90;;;;;;5053721;28;20116;-65
2021/07/17 06:06:57;;;;;;;41.55;33.40;;;18.20;99.90;;;;;;5053430;28;20108;-65
2021/07/17 06:09:23;;;;;;;51.63;33.85;;;18.20;99.90;;;;;;5053713;28;20535;-65
2021/07/17 06:11:49;;;;;;;51.05;35.55;;;18.00;99.90;;;;;;5040749;28;20041;-63
2021/07/17 06:14:15;;;;;;;51.63;36.42;;;18.00;99.90;;;;;;5053567;28;20028;-63
2021/07/17 06:16:40;;;;;;;48.30;33.83;;;17.90;99.90;;;;;;5052754;28;20033;-63
2021/07/17 06:19:06;;;;;;;47.25;33.58;;;18.10;99.90;;;;;;5047320;28;20045;-63
2021/07/17 06:21:33;;;;;;;50.63;33.70;;;18.10;99.90;;;;;;5053103;28;20041;-63
2021/07/17 06:23:58;;;;;;;49.00;33.55;;;18.30;99.90;;;;;;5053151;28;20107;-62
2021/07/17 06:26:25;;;;;;;44.75;30.30;;;18.40;99.90;;;;;;5052944;28;20500;-62
2021/07/17 06:28:51;;;;;;;46.13;31.55;;;18.40;99.90;;;;;;5052384;28;20041;-61
2021/07/17 06:31:19;;;;;;;45.72;31.25;;;18.50;99.90;;;;;;5035257;28;20471;-61
2021/07/17 06:33:45;;;;;;;42.30;31.08;;;18.50;99.90;;;;;;5053404;28;20057;-61
2021/07/17 06:36:11;;;;;;;42.00;31.40;;;18.40;99.90;;;;;;5052165;28;20029;-60
2021/07/17 06:38:36;;;;;;;43.17;30.13;;;18.50;99.90;;;;;;5052653;28;20043;-61
2021/07/17 06:41:02;;;;;;;38.25;28.00;;;18.50;99.90;;;;;;5051085;28;20055;-60
2021/07/17 06:43:28;;;;;;;39.50;28.60;;;18.40;99.90;;;;;;5067067;28;20098;-60
2021/07/17 06:45:54;;;;;;;41.22;28.08;;;18.40;99.90;;;;;;5055142;28;20033;-60
2021/07/17 06:48:19;;;;;;;42.03;28.63;;;18.40;99.90;;;;;;5053384;28;20045;-65
2021/07/17 06:50:47;;;;;;;46.10;31.35;;;18.20;99.90;;;;;;5053135;28;20043;-65
2021/07/17 06:53:13;;;;;;;40.42;28.55;;;18.00;99.90;;;;;;5053498;28;20033;-65
2021/07/17 06:55:39;;;;;;;44.05;28.80;;;18.00;99.90;;;;;;5053447;28;20040;-64
2021/07/17 06:58:04;;;;;;;34.30;25.88;;;18.20;99.90;;;;;;5052302;28;20047;-64
2021/07/17 07:00:33;;;;;;;34.13;26.05;;;18.40;99.90;;;;;;5053545;28;20048;-64
2021/07/17 07:02:59;;;;;;;36.53;25.98;;;18.50;99.90;;;;;;5053649;28;20516;-62
2021/07/17 07:05:25;;;;;;;34.78;25.40;;;18.60;99.90;;;;;;5051343;28;20028;-62
2021/07/17 07:07:50;;;;;;;34.20;25.08;;;18.50;99.90;;;;;;5053017;28;20056;-61
2021/07/17 07:10:16;;;;;;;34.80;23.88;;;18.60;99.90;;;;;;5053070;28;20037;-61
2021/07/17 07:12:42;;;;;;;37.60;25.90;;;18.70;99.90;;;;;;5054504;28;20059;-61
2021/07/17 07:15:09;;;;;;;34.63;24.13;;;18.80;99.90;;;;;;5053407;28;20045;-60
2021/07/17 07:17:35;;;;;;;37.03;25.58;;;18.90;99.90;;;;;;5053332;28;20052;-61
2021/07/17 07:20:02;;;;;;;35.25;23.40;;;18.80;99.90;;;;;;5053294;28;20048;-61
2021/07/17 07:22:28;;;;;;;35.88;24.83;;;18.80;99.90;;;;;;5053167;28;20033;-62
2021/07/17 07:24:53;;;;;;;32.25;24.52;;;18.90;99.90;;;;;;5053160;28;20095;-61
2021/07/17 07:27:19;;;;;;;35.40;25.25;;;19.00;99.90;;;;;;5036782;28;20075;-61
2021/07/17 07:29:45;;;;;;;34.08;25.13;;;19.00;99.90;;;;;;5052814;28;20041;-61
2021/07/17 07:32:10;;;;;;;33.92;25.00;;;18.90;99.90;;;;;;5052687;28;20531;-61
2021/07/17 07:34:36;;;;;;;31.70;24.65;;;19.00;99.90;;;;;;5053014;28;20071;-61
2021/07/17 07:37:01;;;;;;;38.33;25.80;;;19.00;99.90;;;;;;5054439;28;20045;-62
2021/07/17 07:39:27;;;;;;;36.90;25.80;;;19.20;99.90;;;;;;5053067;28;20040;-61
2021/07/17 07:41:54;;;;;;;35.08;26.95;;;19.30;99.90;;;;;;5047236;28;20067;-62
2021/07/17 07:44:19;;;;;;;33.15;25.27;;;19.50;99.90;;;;;;5034668;28;20029;-62
2021/07/17 07:46:45;;;;;;;38.00;26.90;;;19.60;99.90;;;;;;5051666;28;20041;-62
2021/07/17 07:49:12;;;;;;;36.95;26.38;;;19.60;99.90;;;;;;5052803;28;20025;-62
2021/07/17 07:51:37;;;;;;;34.65;26.35;;;19.40;99.90;;;;;;5052395;28;20072;-62
2021/07/17 07:54:03;;;;;;;33.38;25.65;;;19.30;99.90;;;;;;5048316;28;20056;-62
2021/07/17 07:56:28;;;;;;;37.35;25.95;;;19.30;99.90;;;;;;5051552;28;20052;-62
2021/07/17 07:58:54;;;;;;;37.50;28.30;;;19.20;99.90;;;;;;5052182;28;20044;-62
2021/07/17 08:01:19;;;;;;;43.35;29.05;;;19.20;99.90;;;;;;5051449;28;20032;-61
2021/07/17 08:03:45;;;;;;;39.30;28.08;;;19.20;99.90;;;;;;5052407;28;20582;-62
2021/07/17 08:06:11;;;;;;;43.60;29.52;;;19.20;99.90;;;;;;5053093;28;20029;-62
2021/07/17 08:08:36;;;;;;;38.38;27.73;;;19.10;99.90;;;;;;5052343;28;20032;-60
2021/07/17 08:11:02;;;;;;;41.78;28.58;;;19.10;99.90;;;;;;5052308;28;20084;-62
2021/07/17 08:13:28;;;;;;;39.95;27.85;;;19.00;99.90;;;;;;5063404;28;20111;-60
2021/07/17 08:15:54;;;;;;;39.47;28.25;;;19.20;99.90;;;;;;5051775;28;20119;-62
2021/07/17 08:18:20;;;;;;;37.13;26.75;;;19.20;99.90;;;;;;5051242;28;20021;-62
2021/07/17 08:20:46;;;;;;;36.85;28.08;;;19.30;99.90;;;;;;5040542;28;20037;-60
2021/07/17 08:23:12;;;;;;;40.63;28.63;;;19.20;99.90;;;;;;5052366;28;20029;-61
2021/07/17 08:25:38;;;;;;;35.03;27.63;;;19.30;99.90;;;;;;5051725;28;20381;-62
2021/07/17 08:28:03;;;;;;;40.67;28.77;;;19.30;99.90;;;;;;5050641;28;20405;-60
2021/07/17 08:30:29;;;;;;;38.30;28.23;;;19.50;99.90;;;;;;5051783;28;20071;-61
2021/07/17 08:32:55;;;;;;;35.13;29.23;;;19.40;99.90;;;;;;5051938;28;20040;-61
2021/07/17 08:35:22;;;;;;;35.92;28.85;;;19.50;99.90;;;;;;5051913;28;20033;-61
2021/07/17 08:37:48;;;;;;;35.35;26.88;;;19.50;99.90;;;;;;5051935;28;20083;-62
2021/07/17 08:40:14;;;;;;;40.83;28.85;;;19.60;99.90;;;;;;5052138;28;20060;-61
2021/07/17 08:42:46;;;;;;;41.28;29.55;;;19.60;99.90;;;;;;5055554;28;20028;-61
2021/07/17 08:45:12;;;;;;;38.97;29.30;;;19.70;99.90;;;;;;5053341;28;20485;-61
2021/07/17 08:47:41;;;;;;;40.17;29.83;;;19.70;99.90;;;;;;5049885;28;20540;-60
2021/07/17 08:50:09;;;;;;;40.45;29.30;;;19.80;99.90;;;;;;5054472;28;20079;-61
2021/07/17 08:52:36;;;;;;;40.70;30.70;;;19.70;99.90;;;;;;5055301;28;20489;-61
2021/07/17 08:55:04;;;;;;;43.08;31.77;;;19.70;99.90;;;;;;5055895;28;20169;-59
2021/07/17 08:57:32;;;;;;;45.45;34.03;;;19.80;99.90;;;;;;5052466;28;20021;-62
2021/07/17 08:59:58;;;;;;;47.20;34.63;;;19.60;99.90;;;;;;5049009;28;20028;-61
2021/07/17 09:02:24;;;;;;;51.20;34.65;;;19.60;99.90;;;;;;5053517;28;20029;-62
2021/07/17 09:04:52;;;;;;;55.53;39.15;;;19.80;99.90;;;;;;5052780;28;20033;-61
2021/07/17 09:07:18;;;;;;;53.65;37.88;;;19.80;99.90;;;;;;5052266;28;20497;-62
2021/07/17 09:09:44;;;;;;;52.38;38.03;;;19.90;99.90;;;;;;5051819;28;20045;-59
2021/07/17 09:12:23;;;;;;;55.03;39.45;;;19.90;99.90;;;;;;5058419;28;20024;-62
2021/07/17 09:14:49;;;;;;;52.95;37.63;;;20.00;99.90;;;;;;5054607;28;20033;-62
2021/07/17 09:17:41;;;;;;;54.20;39.40;;;20.10;99.90;;;;;;5049640;28;20032;-62
2021/07/17 09:20:07;;;;;;;49.10;39.08;;;20.20;99.90;;;;;;5048291;28;20048;-61
2021/07/17 09:22:38;;;;;;;56.20;39.60;;;20.30;99.90;;;;;;5051996;28;20477;-60
2021/07/17 09:25:16;;;;;;;59.20;42.63;;;20.20;99.90;;;;;;5051284;28;20035;-60
2021/07/17 09:27:41;;;;;;;64.38;42.00;;;20.20;99.90;;;;;;5051710;28;20047;-61
2021/07/17 09:30:31;;;;;;;58.03;40.53;;;20.20;99.90;;;;;;5051754;28;20041;-60
2021/07/17 09:33:06;;;;;;;61.70;44.28;;;20.20;99.90;;;;;;5055512;28;20037;-61
2021/07/17 09:35:33;;;;;;;59.38;43.90;;;20.00;99.90;;;;;;5054518;28;20055;-61
2021/07/17 09:38:00;;;;;;;65.25;43.80;;;20.10;99.90;;;;;;5054774;28;20033;-60
2021/07/17 09:40:26;;;;;;;68.47;43.88;;;20.10;99.90;;;;;;5054399;28;20393;-60
2021/07/17 09:42:52;;;;;;;61.28;41.47;;;20.20;99.90;;;;;;5050721;28;20086;-59
2021/07/17 09:45:35;;;;;;;57.30;40.38;;;20.40;99.90;;;;;;5044945;28;20092;-59
2021/07/17 09:48:21;;;;;;;66.15;43.08;;;20.60;99.90;;;;;;5040775;28;20033;-59
2021/07/17 09:50:48;;;;;;;62.60;41.38;;;20.60;99.90;;;;;;5042244;28;20069;-59
2021/07/17 09:53:40;;;;;;;62.38;43.42;;;20.60;99.90;;;;;;5047591;28;20028;-56
2021/07/17 09:56:11;;;;;;;62.40;42.38;;;20.50;99.90;;;;;;5051003;28;20029;-57
2021/07/17 09:58:38;;;;;;;64.07;43.80;;;20.50;99.90;;;;;;5054108;28;20033;-60
2021/07/17 10:01:17;;;;;;;58.17;40.45;;;20.50;99.90;;;;;;5062757;28;20043;-61
2021/07/17 10:03:44;;;;;;;64.93;42.38;;;20.40;99.90;;;;;;5067853;28;20100;-61
2021/07/17 10:06:23;;;;;;;63.63;42.13;;;20.50;99.90;;;;;;5052260;28;20032;-60
2021/07/17 10:08:49;;;;;;;65.68;43.05;;;20.50;99.90;;;;;;5044945;28;20047;-61
2021/07/17 10:11:22;;;;;;;59.67;41.40;;;20.50;99.90;;;;;;5055281;28;20492;-60
2021/07/17 10:13:48;;;;;;;63.38;42.83;;;20.60;99.90;;;;;;5053880;28;20033;-61
2021/07/17 10:16:19;;;;;;;64.43;43.72;;;20.60;99.90;;;;;;5054648;28;20400;-61
2021/07/17 10:18:46;;;;;;;59.28;40.17;;;20.70;99.90;;;;;;5054657;28;20033;-60
2021/07/17 10:21:12;;;;;;;64.22;41.13;;;20.70;99.90;;;;;;5053432;28;20028;-60
2021/07/17 10:23:39;;;;;;;59.58;40.80;;;20.70;99.90;;;;;;5052930;28;20029;-61
2021/07/17 10:26:06;;;;;;;62.75;42.17;;;20.80;99.90;;;;;;5052874;28;20092;-60
2021/07/17 10:28:32;;;;;;;63.55;42.67;;;20.80;99.90;;;;;;5053377;28;20040;-61
2021/07/17 10:30:58;;;;;;;65.13;42.38;;;20.80;99.90;;;;;;5054154;28;20076;-61
2021/07/17 10:33:24;;;;;;;63.33;42.78;;;20.90;99.90;;;;;;5054189;28;20029;-59
2021/07/17 10:35:52;;;;;;;64.15;41.42;;;20.90;99.90;;;;;;5053951;28;20037;-61
2021/07/17 10:38:19;;;;;;;61.10;40.83;;;21.00;99.90;;;;;;5054062;28;20028;-60
2021/07/17 10:40:46;;;;;;;64.25;42.45;;;21.10;99.90;;;;;;5040222;28;20108;-61
2021/07/17 10:43:13;;;;;;;57.42;40.47;;;21.20;99.90;;;;;;5050381;28;20098;-61
2021/07/17 10:45:42;;;;;;;67.43;42.60;;;21.20;99.90;;;;;;5059084;28;20037;-61
2021/07/17 10:48:24;;;;;;;63.17;40.83;;;21.20;99.90;;;;;;5062370;28;20032;-62
2021/07/17 10:50:50;;;;;;;63.95;40.95;;;21.20;99.90;;;;;;5054344;28;20528;-61
2021/07/17 10:53:41;;;;;;;61.47;40.20;;;21.20;99.90;;;;;;5054335;28;20122;-62
2021/07/17 10:56:28;;;;;;;68.82;41.83;;;21.20;99.90;;;;;;5052972;28;20488;-61
2021/07/17 10:58:58;;;;;;;56.13;39.53;;;21.30;99.90;;;;;;5036041;28;20028;-61
2021/07/17 11:01:25;;;;;;;63.53;40.65;;;21.20;99.90;;;;;;5053771;28;20391;-58
2021/07/17 11:03:52;;;;;;;59.25;41.63;;;21.30;99.90;;;;;;5053950;28;20107;-60
2021/07/17 11:06:35;;;;;;;60.05;42.30;;;21.20;99.90;;;;;;5053481;28;20459;-59
2021/07/17 11:09:47;;;;;;;65.95;41.72;;;21.10;99.90;;;;;;5052299;28;20032;-61
2021/07/17 11:12:21;;;;;;;57.67;41.50;;;21.30;99.90;;;;;;4986561;28;20149;-60
2021/07/17 11:14:47;;;;;;;56.97;39.60;;;21.40;99.90;;;;;;5048299;28;20148;-58
2021/07/17 11:17:13;;;;;;;54.58;37.72;;;21.50;99.90;;;;;;5053370;28;20060;-60
2021/07/17 11:19:38;;;;;;;57.08;38.08;;;21.50;99.90;;;;;;5053006;28;20037;-58
2021/07/17 11:22:12;;;;;;;57.00;38.28;;;21.60;99.90;;;;;;5053231;28;20654;-59
2021/07/17 11:24:37;;;;;;;55.10;38.70;;;21.60;99.90;;;;;;5042167;28;20128;-60
2021/07/17 11:27:13;;;;;;;57.55;38.63;;;21.60;99.80;;;;;;5030820;28;20116;-60
2021/07/17 11:29:46;;;;;;;48.78;36.28;;;21.70;99.90;;;;;;5052566;28;20509;-61
2021/07/17 11:32:14;;;;;;;53.85;36.17;;;21.80;99.80;;;;;;5052866;28;20133;-60
2021/07/17 11:34:42;;;;;;;66.85;38.05;;;22.00;99.80;;;;;;5052847;28;20087;-60
2021/07/17 11:37:10;;;;;;;61.95;36.47;;;22.00;99.60;;;;;;5051828;28;20488;-60
2021/07/17 11:39:41;;;;;;;53.28;34.60;;;22.10;99.40;;;;;;5053061;28;20029;-59
2021/07/17 11:42:09;;;;;;;53.88;36.63;;;22.00;99.60;;;;;;5054652;28;20029;-60
2021/07/17 11:44:41;;;;;;;57.20;35.28;;;22.10;99.60;;;;;;5051603;28;20571;-58
2021/07/17 11:47:15;;;;;;;48.40;33.33;;;22.30;99.20;;;;;;5059861;28;20032;-60
2021/07/17 11:50:07;;;;;;;47.25;32.28;;;22.30;99.20;;;;;;5052787;28;20036;-61
2021/07/17 11:52:36;;;;;;;46.35;32.42;;;22.50;99.00;;;;;;5049631;28;20091;-59
2021/07/17 11:55:08;;;;;;;46.80;32.75;;;22.70;98.80;;;;;;5051002;28;20033;-61
2021/07/17 11:57:36;;;;;;;45.58;31.65;;;22.90;98.20;;;;;;5051973;28;20040;-60
2021/07/17 12:00:05;;;;;;;47.25;31.42;;;22.90;98.10;;;;;;5052537;28;20032;-61
2021/07/17 12:02:33;;;;;;;43.75;29.05;;;23.20;98.10;;;;;;5052677;28;20025;-60
2021/07/17 12:05:04;;;;;;;54.65;33.90;;;23.40;97.80;;;;;;5052314;28;20428;-61
2021/07/17 12:07:31;;;;;;;41.13;29.00;;;23.40;97.60;;;;;;5051986;28;20074;-61
2021/07/17 12:10:04;;;;;;;41.33;27.88;;;23.60;97.30;;;;;;5052518;28;20433;-59
2021/07/17 12:12:35;;;;;;;38.67;28.05;;;23.70;97.00;;;;;;5053240;28;20066;-60
2021/07/17 12:15:06;;;;;;;36.10;26.25;;;23.90;96.90;;;;;;5050563;28;20021;-60
2021/07/17 12:17:34;;;;;;;31.35;24.92;;;23.90;96.80;;;;;;5051928;28;20029;-60
2021/07/17 12:20:11;;;;;;;33.88;26.42;;;24.00;96.80;;;;;;5052350;28;20416;-59
2021/07/17 12:22:43;;;;;;;33.03;26.60;;;24.20;96.70;;;;;;5052144;28;20021;-60
2021/07/17 12:25:16;;;;;;;35.75;26.73;;;24.30;96.30;;;;;;5051824;28;20029;-59
2021/07/17 12:28:02;;;;;;;26.20;22.33;;;24.30;96.20;;;;;;5035274;28;20043;-60
2021/07/17 12:30:33;;;;;;;27.95;21.10;;;24.10;96.00;;;;;;5052010;28;20043;-61